Flight Track Log - Related Links

Times and Time Zones

All times are in EDT time to prevent confusion due to time zone crossing. See the UAL3746 flight status page for this flight to view local times or setup timezone preferences in your user account.


Time Position Orientation Groundspeed Altitude Reporting Facility
EDT Latitude Longitude Course Direction KTS MPH feet Rate Location/Type
Tue 05:50:59 PM 42.9167 -71.4833 270° West 164 189 2,100  Level KA90
Tue 05:51:34 PM 42.9481 -71.5153 323° Northwest 205 236 3,200 2,000 Climbing Boston Center
Tue 05:52:35 PM 43.0089 -71.5569 333° Northwest 245 282 5,300 2,081 Climbing Boston Center
Tue 05:53:38 PM 43.0769 -71.6072 332° Northwest 276 318 7,500 2,371 Climbing Boston Center
Tue 05:54:00 PM 42.9500 -72.0420 270° West  Level FlightAware Approximate
Tue 05:54:39 PM 43.1117 -71.7031 296° West 259 298 10,200  Level Boston Center
Tue 05:55:00 PM 42.9500 -72.1954 270° West  Level FlightAware Approximate
Tue 05:55:43 PM 43.1211 -71.8131 277° West 292 336 11,500  Level Boston Center
Tue 05:56:44 PM 43.1317 -71.9397 277° West 310 357 13,200 1,574 Climbing Boston Center
Tue 05:57:45 PM 43.1436 -72.0667 277° West 334 384 14,700 1,525 Climbing Boston Center
Tue 05:58:46 PM 43.1547 -72.1986 277° West 345 397 16,300 1,475 Climbing Boston Center
Tue 05:59:47 PM 43.1647 -72.3178 277° West 349 402 17,700 1,548 Climbing Boston Center
Tue 06:00:50 PM 43.1781 -72.4817 276° West 357 411 19,500 1,597 Climbing Boston Center
Tue 06:01:51 PM 43.1897 -72.6192 277° West 362 417 21,000 1,306 Climbing Boston Center
Tue 06:02:54 PM 43.2011 -72.7600 276° West 369 425 22,200 1,161 Climbing Boston Center
Tue 06:03:55 PM 43.2119 -72.9019 276° West 374 430 23,400 1,122 Climbing Boston Center
Tue 06:04:57 PM 43.2233 -73.0456 276° West 378 435 24,500 1,073 Climbing Boston Center
Tue 06:05:58 PM 43.2347 -73.1892 276° West 378 435 25,600 942 Climbing Boston Center
Tue 06:06:58 PM 43.2461 -73.3333 276° West 380 437 26,400 919 Climbing Boston Center
Tue 06:08:02 PM 43.2581 -73.5014 276° West 387 445 27,500 823 Climbing Boston Center
Tue 06:09:02 PM 43.2694 -73.6497 276° West 388 447 28,100 581 Climbing Boston Center
Tue 06:10:06 PM 43.2797 -73.8003 275° West 391 450 28,700 581 Climbing Boston Center
Tue 06:11:06 PM 43.2911 -73.9544 276° West 402 463 29,300 595 Climbing Boston Center
Tue 06:12:07 PM 43.3017 -74.1189 275° West 410 472 29,900 629 Climbing Boston Center
Tue 06:13:10 PM 43.3133 -74.2750 276° West 413 475 30,600 919 Climbing Boston Center
Tue 06:14:11 PM 43.3256 -74.4606 275° West 412 474 31,800 919 Climbing Boston Center
Tue 06:15:14 PM 43.3358 -74.6150 275° West 410 472 32,500 774 Climbing Boston Center
Tue 06:16:15 PM 43.3453 -74.7711 275° West 410 472 33,400 836 Climbing Boston Center
Tue 06:17:16 PM 43.3556 -74.9231 275° West 406 467 34,200 885 Climbing Boston Center
Tue 06:18:17 PM 43.3647 -75.0744 275° West 402 463 35,200 864 Climbing Boston Center
Tue 06:19:21 PM 43.4075 -75.2239 292° West 410 472 36,000 384 Climbing Boston Center
Tue 06:20:22 PM 43.4906 -75.3403 315° West 423 487 36,000  Level Boston Center
Tue 06:21:23 PM 43.5753 -75.4622 314° West 438 504 36,000 49 Level Boston Center
Tue 06:22:24 PM 43.6622 -75.5831 315° West 441 507 36,100  Climbing Boston Center
Tue 06:23:28 PM 43.7781 -75.7122 321° Northwest 444 511 36,000 -48 Descending Boston Center
Tue 06:24:28 PM 43.8750 -75.8178 322° Northwest 446 513 36,000 50 Level Boston Center
Tue 06:25:29 PM 43.9764 -75.9169 325° Northwest 447 514 36,100  Climbing Boston Center
Tue 06:26:30 PM 44.0633 -76.0367 315° West 446 513 36,000 -48 Descending Boston Center
Tue 06:27:35 PM 44.1158 -76.1844 296° West 434 499 36,000  Level Boston Center
Tue 06:28:35 PM 44.1719 -76.3594 294° West 434 499 36,000  Level Boston Center
Tue 06:29:31 PM 44.1833 -76.4667 278° West 430 495 36,000  Level Toronto Center
Tue 06:30:31 PM 44.1833 -76.6500 270° West 420 483 36,000  Level Toronto Center
Tue 06:31:31 PM 44.2000 -76.8167 278° West 430 495 36,000  Level Toronto Center
Tue 06:32:31 PM 44.2167 -76.9833 278° West 430 495 36,000  Level Toronto Center
Tue 06:33:31 PM 44.2167 -77.1500 270° West 430 495 36,000  Level Toronto Center
Tue 06:34:31 PM 44.2333 -77.3000 279° West 430 495 36,000  Level Toronto Center
Tue 06:35:31 PM 44.2500 -77.4833 277° West 430 495 36,000  Level Toronto Center
Tue 06:36:31 PM 44.2500 -77.6500 270° West 420 483 36,000  Level Toronto Center
Tue 06:37:31 PM 44.2167 -77.8000 253° West 410 472 36,000  Level Toronto Center
Tue 06:38:31 PM 44.1833 -77.9667 254° West 410 472 36,000  Level Toronto Center
Tue 06:39:31 PM 44.1667 -78.1000 260° West 410 472 36,000  Level Toronto Center
Tue 06:40:31 PM 44.1333 -78.2667 254° West 410 472 36,000  Level Toronto Center
Tue 06:41:31 PM 44.1000 -78.4000 251° West 410 472 36,000  Level Toronto Center
Tue 06:42:31 PM 44.0833 -78.5667 262° West 400 460 36,000  Level Toronto Center
Tue 06:43:31 PM 44.0667 -78.7000 260° West 410 472 36,000  Level Toronto Center
Tue 06:44:31 PM 44.0333 -78.8667 255° West 410 472 36,000  Level Toronto Center
Tue 06:45:31 PM 44.0000 -79.0000 251° West 400 460 36,000  Level Toronto Center
Tue 06:46:31 PM 43.9667 -79.1667 255° West 400 460 36,000  Level Toronto Center
Tue 06:47:31 PM 43.9500 -79.3167 261° West 400 460 36,000  Level Toronto Center
Tue 06:48:31 PM 43.9167 -79.4667 253° West 400 460 36,000 350 Level Toronto Center
Tue 06:49:31 PM 43.8833 -79.6167 253° West 400 460 36,700 650 Climbing Toronto Center
Tue 06:50:31 PM 43.8667 -79.7500 260° West 390 449 37,300 550 Climbing Toronto Center
Tue 06:51:31 PM 43.8333 -79.9167 255° West 380 437 37,800 350 Climbing Toronto Center
Tue 06:52:31 PM 43.8000 -80.0500 251° West 380 437 38,000 100 Climbing Toronto Center
Tue 06:53:31 PM 43.7833 -80.1833 260° West 380 437 38,000  Level Toronto Center
Tue 06:54:31 PM 43.7500 -80.3333 253° West 370 426 38,000  Level Toronto Center
Tue 06:55:31 PM 43.7167 -80.4667 251° West 370 426 38,000  Level Toronto Center
Tue 06:56:31 PM 43.7000 -80.6000 260° West 370 426 38,000 50 Level Toronto Center
Tue 06:57:31 PM 43.6667 -80.7333 251° West 370 426 38,100  Climbing Toronto Center
Tue 06:58:31 PM 43.6333 -80.8833 253° West 370 426 38,000 -50 Descending Toronto Center
Tue 06:59:31 PM 43.6000 -81.0167 251° West 370 426 38,000  Level Toronto Center
Tue 07:00:31 PM 43.5833 -81.1500 260° West 370 426 38,000  Level Toronto Center
Tue 07:01:31 PM 43.5500 -81.2833 251° West 370 426 38,000  Level Toronto Center
Tue 07:02:31 PM 43.5167 -81.4333 253° West 370 426 38,000  Level Toronto Center
Tue 07:03:31 PM 43.5000 -81.5667 260° West 380 437 38,000  Level Toronto Center
Tue 07:04:31 PM 43.4667 -81.7000 251° West 380 437 38,000  Level Toronto Center
Tue 07:05:31 PM 43.4333 -81.8333 251° West 380 437 38,000  Level Toronto Center
Tue 07:06:31 PM 43.4000 -81.9667 251° West 380 437 38,000  Level Toronto Center
Tue 07:07:31 PM 43.3667 -82.1167 253° West 380 437 38,000  Level Toronto Center
Tue 07:08:31 PM 43.3333 -82.2667 253° West 380 437 38,000  Level Toronto Center
Tue 07:09:31 PM 43.3167 -82.4000 260° West 390 449 38,000  Level Toronto Center
Tue 07:10:31 PM 43.2833 -82.5667 255° West 400 460 38,000  Level Toronto Center
Tue 07:11:31 PM 43.2333 -82.7000 243° Southwest 400 460 38,000  Level Toronto Center
Tue 07:12:31 PM 43.2000 -82.8333 251° West 400 460 38,000  Level Toronto Center
Tue 07:13:31 PM 43.1667 -83.0000 255° West 400 460 38,000 -350 Level Toronto Center
Tue 07:14:31 PM 43.1333 -83.1333 251° West 400 460 37,300 -700 Descending Toronto Center
Tue 07:15:31 PM 43.0833 -83.2833 246° West 420 483 36,600 -673 Descending Toronto Center
Tue 07:16:18 PM 43.0667 -83.3908 258° West 416 479 36,100 -450 Descending Chicago Center
Tue 07:16:51 PM 43.0433 -83.4778 250° West 417 480 36,000 -64 Descending Cleveland Center
Tue 07:17:52 PM 43.0008 -83.6256 249° West 418 481 36,000  Level Cleveland Center
Tue 07:18:53 PM 42.9614 -83.7731 250° West 418 481 36,000  Level Cleveland Center
Tue 07:19:55 PM 42.9483 -83.9319 264° West 421 484 36,000  Level Cleveland Center
Tue 07:20:56 PM 42.9328 -84.0897 262° West 421 484 36,000  Level Cleveland Center
Tue 07:21:57 PM 42.9186 -84.2464 263° West 421 484 36,000 -590 Level Cleveland Center
Tue 07:22:58 PM 42.9019 -84.4133 262° West 422 486 34,800 -1,854 Descending Cleveland Center
Tue 07:24:00 PM 42.8847 -84.5700 262° West 421 484 32,200 -1,366 Descending Cleveland Center
Tue 07:25:01 PM 42.8686 -84.7247 262° West 418 481 32,000 -98 Descending Cleveland Center
Tue 07:26:02 PM 42.8519 -84.8828 262° West 419 482 32,000  Level Cleveland Center
Tue 07:26:37 PM 42.8428 -84.9772 262° West 421 484 32,000  Level Chicago Center
Tue 07:27:38 PM 42.8258 -85.1375 262° West 426 490 32,000  Level Chicago Center
Tue 07:28:40 PM 42.8047 -85.3319 262° West 429 494 32,000  Level Chicago Center
Tue 07:29:42 PM 42.7867 -85.4950 261° West 433 498 32,000 -629 Level Chicago Center
Tue 07:30:44 PM 42.7575 -85.6561 256° West 434 499 30,700 -1,935 Descending Chicago Center
Tue 07:31:46 PM 42.7289 -85.8139 256° West 433 498 28,000 -2,613 Descending Chicago Center
Tue 07:32:48 PM 42.7019 -85.9633 256° West 409 471 25,300 -2,613 Descending Chicago Center
Tue 07:33:50 PM 42.6756 -86.1072 256° West 393 452 22,600 -2,488 Descending Chicago Center
Tue 07:34:51 PM 42.6497 -86.2461 256° West 385 443 20,200 -1,268 Descending Chicago Center
Tue 07:35:53 PM 42.6256 -86.3733 256° West 348 400 20,000 -97 Descending Chicago Center
Tue 07:36:55 PM 42.5981 -86.5183 256° West 328 377 20,000 -823 Level Chicago Center
Tue 07:37:57 PM 42.5750 -86.6403 256° West 333 383 18,300 -1,790 Descending Chicago Center
Tue 07:38:59 PM 42.5533 -86.7589 256° West 329 379 16,300 -1,935 Descending Chicago Center
Tue 07:40:01 PM 42.5217 -86.8689 249° West 318 366 14,300 -1,935 Descending Chicago Center
Tue 07:41:03 PM 42.4928 -86.9775 250° West 311 358 12,300 -1,452 Descending Chicago Center
Tue 07:42:05 PM 42.4650 -87.0733 249° West 275 316 11,300 -1,073 Descending Chicago Center
Tue 07:43:06 PM 42.4389 -87.1675 249° West 268 308 10,100 -1,122 Descending Chicago Center
Tue 07:44:08 PM 42.4089 -87.2758 249° West 258 297 9,000 -532 Descending Chicago Center
Tue 07:45:10 PM 42.3361 -87.2931 190° South 290 334 9,000 48 Level Chicago Center
Tue 07:46:12 PM 42.2511 -87.2775 172° South 296 341 9,100 48 Climbing Chicago Center
Tue 07:47:14 PM 42.1667 -87.2606 172° South 285 328 9,100  Level Chicago Center
Tue 07:48:16 PM 42.0997 -87.2447 170° South 251 289 9,100  Level Chicago Center
Tue 07:49:17 PM 42.0294 -87.2478 182° South 247 284 9,100 -341 Level Chicago Center
Tue 07:50:19 PM 41.9903 -87.3150 232° Southwest 231 266 8,400 -581 Descending Chicago Center
Tue 07:51:21 PM 41.9839 -87.3906 264° West 206 237 7,900 -726 Descending Chicago Center
Tue 07:52:23 PM 41.9817 -87.4767 268° West 212 244 6,900 -1,161 Descending Chicago Center
Tue 07:53:25 PM 41.9817 -87.5533 270° West 209 241 5,500 -1,258 Descending Chicago Center
Tue 07:54:27 PM 41.9836 -87.6353 272° West 208 239 4,300 -1,113 Descending Chicago Center
Tue 07:55:29 PM 41.9833 -87.7094 270° West 204 235 3,200 -976 Descending Chicago Center
Tue 07:56:30 PM 41.9828 -87.7733 269° West 174 200 2,300 -732 Descending Chicago Center
Tue 07:57:32 PM 41.9833 -87.8331 271° West 150 173 1,700 -629 Descending Chicago Center
Tue 07:58:34 PM 41.9831 -87.8769 270° West 125 144 1,000 -677 Descending Chicago Center

Login

Don't have an account? Register now (free) for customized features, flight alerts, and more!